Louisbourg, Canada
Current Conditions -  °F | °C
As of 2:00 PM on Thursday 23 Oct 2014 (Local Time) from CYQY Reporting Station
Overcast Overcast  
Wind Chill: 13°   Ceiling: 1400
Heat Index: 13°   Visibility: 10mi
Dew Point:   Wind: 20mph
Humidity: 77%   Direction: 90°E
Pressure: 30.16"   Gusts: NA
Location:  45.92°N, 59.98°W
Report Text: CYQY 231700Z 09017KT 10SM BKN014 BKN070 OVC090 13/09 A3016 RMK SC6AC1AS1 SLP216
Loading
Personal Weather Stations






























Interactive Weather Map
Tropical Storm Tracking
New forecast layout! Learn more

10-Day Weather Forecast

Advertisements
Track Severe Weather on mobile